createdAt,value
2018-04-19T21:18:37.248Z,22.80
2018-04-19T21:21:08.346Z,22.70
2018-04-19T21:23:39.412Z,22.70
2018-04-19T21:26:09.794Z,22.60
2018-04-19T21:28:40.931Z,22.40
2018-04-19T21:31:11.255Z,22.40
2018-04-19T21:33:41.566Z,22.30
2018-04-19T21:36:11.887Z,22.30
2018-04-19T21:38:42.226Z,22.10
2018-04-19T21:41:12.526Z,22.00
2018-04-19T21:43:42.908Z,22.00
2018-04-19T21:46:13.202Z,21.90
2018-04-19T21:48:43.523Z,21.90
2018-04-19T21:51:13.859Z,22.00
2018-04-19T21:53:44.171Z,22.00
2018-04-19T21:56:14.521Z,22.10
2018-04-19T21:58:44.866Z,22.10
2018-04-19T22:01:15.162Z,22.10
2018-04-19T22:03:45.499Z,22.10
2018-04-19T22:06:15.931Z,22.00
2018-04-19T22:08:46.391Z,22.00
2018-04-19T22:11:17.495Z,21.90
2018-04-19T22:13:47.958Z,21.90
2018-04-19T22:16:18.232Z,21.90
2018-04-19T22:18:54.901Z,21.90
2018-04-19T22:21:25.223Z,21.80
2018-04-19T22:23:55.599Z,21.80
2018-04-19T22:26:25.905Z,21.90
2018-04-19T22:28:56.382Z,21.80
2018-04-19T22:31:26.861Z,21.80
2018-04-19T22:33:57.511Z,21.80
2018-04-19T22:36:27.862Z,21.80
2018-04-19T22:38:59.042Z,22.10
2018-04-19T22:41:29.555Z,22.10
2018-04-19T22:43:59.838Z,22.30
2018-04-19T22:46:30.194Z,22.50
2018-04-19T22:49:00.666Z,22.60
2018-04-19T22:51:31.229Z,22.70
2018-04-19T22:54:01.551Z,22.80
2018-04-19T22:56:31.861Z,22.80
2018-04-19T22:59:02.338Z,22.90
2018-04-19T23:01:32.639Z,22.90
2018-04-19T23:04:03.842Z,23.10
2018-04-19T23:06:34.166Z,23.00
2018-04-19T23:09:04.535Z,22.80
2018-04-19T23:11:35.578Z,22.30
2018-04-19T23:14:06.694Z,22.20
2018-04-19T23:16:38.354Z,22.20
2018-04-19T23:19:08.738Z,22.20
2018-04-19T23:21:39.079Z,22.20
2018-04-19T23:24:09.493Z,22.10
2018-04-19T23:26:39.814Z,22.10
2018-04-19T23:29:10.139Z,22.10
2018-04-19T23:31:40.494Z,22.10
2018-04-19T23:34:10.939Z,22.10
2018-04-19T23:36:41.330Z,22.10
2018-04-19T23:39:11.683Z,22.10
2018-04-19T23:41:41.965Z,22.10
2018-04-19T23:44:12.293Z,22.10
2018-04-19T23:46:42.673Z,22.10
2018-04-19T23:49:13.001Z,22.10
2018-04-19T23:51:44.105Z,22.00
2018-04-19T23:54:14.442Z,22.00
2018-04-19T23:56:44.762Z,22.00
2018-04-19T23:59:15.134Z,21.90
